sensor_id;sensor_type;location;lat;lon;timestamp;temperature;humidity
27870;DHT22;15225;50.730;4.244;2023-02-28T17:47:03;4.10;1.00
27870;DHT22;15225;50.730;4.244;2023-02-28T17:49:29;3.90;1.00
27870;DHT22;15225;50.730;4.244;2023-02-28T17:51:59;4.10;1.00
27870;DHT22;15225;50.730;4.244;2023-02-28T17:54:24;4.40;1.00
27870;DHT22;15225;50.730;4.244;2023-02-28T17:56:50;4.50;1.00
27870;DHT22;15225;50.730;4.244;2023-02-28T17:59:16;4.70;1.00
27870;DHT22;15225;50.730;4.244;2023-02-28T18:01:41;4.70;1.00
27870;DHT22;15225;50.730;4.244;2023-02-28T18:04:07;4.80;1.00
27870;DHT22;15225;50.730;4.244;2023-02-28T18:06:44;5.00;1.00
27870;DHT22;15225;50.730;4.244;2023-02-28T18:09:18;5.10;1.00
27870;DHT22;15225;50.730;4.244;2023-02-28T18:11:47;5.30;1.00
27870;DHT22;15225;50.730;4.244;2023-02-28T18:14:16;5.40;1.00
27870;DHT22;15225;50.730;4.244;2023-02-28T18:16:42;5.40;1.00
27870;DHT22;15225;50.730;4.244;2023-02-28T18:19:08;5.50;1.00
27870;DHT22;15225;50.730;4.244;2023-02-28T18:21:43;5.50;1.00
27870;DHT22;15225;50.730;4.244;2023-02-28T18:24:09;5.70;1.00
27870;DHT22;15225;50.730;4.244;2023-02-28T18:26:36;5.90;1.00
27870;DHT22;15225;50.730;4.244;2023-02-28T18:29:02;6.00;1.00
27870;DHT22;15225;50.730;4.244;2023-02-28T18:31:28;6.00;1.00
27870;DHT22;15225;50.730;4.244;2023-02-28T18:33:56;6.10;1.00
27870;DHT22;15225;50.730;4.244;2023-02-28T18:36:23;6.30;1.00
27870;DHT22;15225;50.730;4.244;2023-02-28T18:38:49;6.20;1.00
27870;DHT22;15225;50.730;4.244;2023-02-28T18:41:16;6.20;1.00
27870;DHT22;15225;50.730;4.244;2023-02-28T18:43:43;6.10;1.00
27870;DHT22;15225;50.730;4.244;2023-02-28T18:46:11;6.20;1.00
27870;DHT22;15225;50.730;4.244;2023-02-28T18:48:38;6.20;1.00
27870;DHT22;15225;50.730;4.244;2023-02-28T18:51:15;6.10;1.00
27870;DHT22;15225;50.730;4.244;2023-02-28T18:53:42;6.20;1.00
27870;DHT22;15225;50.730;4.244;2023-02-28T18:56:10;6.20;1.00
27870;DHT22;15225;50.730;4.244;2023-02-28T18:58:37;6.10;1.00
27870;DHT22;15225;50.730;4.244;2023-02-28T19:01:18;6.20;1.00
27870;DHT22;15225;50.730;4.244;2023-02-28T19:03:45;6.00;1.00
27870;DHT22;15225;50.730;4.244;2023-02-28T19:06:12;6.00;1.00
27870;DHT22;15225;50.730;4.244;2023-02-28T19:08:38;6.00;1.00
27870;DHT22;15225;50.730;4.244;2023-02-28T19:11:23;6.10;1.00
27870;DHT22;15225;50.730;4.244;2023-02-28T19:13:49;6.10;1.00
27870;DHT22;15225;50.730;4.244;2023-02-28T19:16:16;6.00;1.00
27870;DHT22;15225;50.730;4.244;2023-02-28T19:18:42;6.10;1.00
27870;DHT22;15225;50.730;4.244;2023-02-28T19:21:09;6.00;1.00
27870;DHT22;15225;50.730;4.244;2023-02-28T19:23:36;6.10;1.00
27870;DHT22;15225;50.730;4.244;2023-02-28T19:26:14;6.00;1.00
27870;DHT22;15225;50.730;4.244;2023-02-28T19:28:41;6.00;1.00
27870;DHT22;15225;50.730;4.244;2023-02-28T19:31:14;5.90;1.00
27870;DHT22;15225;50.730;4.244;2023-02-28T19:33:41;5.80;1.00
27870;DHT22;15225;50.730;4.244;2023-02-28T19:36:08;5.70;1.00
27870;DHT22;15225;50.730;4.244;2023-02-28T19:38:36;5.70;1.00
27870;DHT22;15225;50.730;4.244;2023-02-28T19:41:08;5.70;1.00
27870;DHT22;15225;50.730;4.244;2023-02-28T19:43:34;5.80;1.00
27870;DHT22;15225;50.730;4.244;2023-02-28T19:46:00;5.80;1.00
27870;DHT22;15225;50.730;4.244;2023-02-28T19:48:26;5.80;1.00
27870;DHT22;15225;50.730;4.244;2023-02-28T19:51:01;5.80;1.00
27870;DHT22;15225;50.730;4.244;2023-02-28T19:53:29;5.70;1.00
27870;DHT22;15225;50.730;4.244;2023-02-28T19:55:55;5.80;1.00
27870;DHT22;15225;50.730;4.244;2023-02-28T19:58:21;5.80;1.00
27870;DHT22;15225;50.730;4.244;2023-02-28T20:00:48;5.80;1.00
27870;DHT22;15225;50.730;4.244;2023-02-28T20:03:14;5.70;1.00
27870;DHT22;15225;50.730;4.244;2023-02-28T20:05:40;5.70;1.00
27870;DHT22;15225;50.730;4.244;2023-02-28T20:08:06;5.60;1.00
27870;DHT22;15225;50.730;4.244;2023-02-28T20:10:33;5.60;1.00
27870;DHT22;15225;50.730;4.244;2023-02-28T20:12:59;5.70;1.00
27870;DHT22;15225;50.730;4.244;2023-02-28T20:15:25;5.60;1.00
27870;DHT22;15225;50.730;4.244;2023-02-28T20:17:50;5.50;1.00
27870;DHT22;15225;50.730;4.244;2023-02-28T20:20:16;5.60;1.00
27870;DHT22;15225;50.730;4.244;2023-02-28T20:22:42;5.60;1.00
27870;DHT22;15225;50.730;4.244;2023-02-28T20:25:08;5.60;1.00
27870;DHT22;15225;50.730;4.244;2023-02-28T20:27:36;5.60;1.00
27870;DHT22;15225;50.730;4.244;2023-02-28T20:30:03;5.50;1.00
27870;DHT22;15225;50.730;4.244;2023-02-28T20:32:29;5.60;1.00
27870;DHT22;15225;50.730;4.244;2023-02-28T20:34:55;5.50;1.00
27870;DHT22;15225;50.730;4.244;2023-02-28T20:37:21;5.50;1.00
27870;DHT22;15225;50.730;4.244;2023-02-28T20:39:46;5.50;1.00
27870;DHT22;15225;50.730;4.244;2023-02-28T20:42:14;5.40;1.00
27870;DHT22;15225;50.730;4.244;2023-02-28T20:44:39;5.40;1.00
27870;DHT22;15225;50.730;4.244;2023-02-28T20:47:05;5.30;1.00
27870;DHT22;15225;50.730;4.244;2023-02-28T20:49:31;5.20;1.00
27870;DHT22;15225;50.730;4.244;2023-02-28T20:51:56;5.20;1.00
27870;DHT22;15225;50.730;4.244;2023-02-28T20:54:22;5.20;1.00
27870;DHT22;15225;50.730;4.244;2023-02-28T20:56:48;5.20;1.00
27870;DHT22;15225;50.730;4.244;2023-02-28T20:59:13;5.20;1.00
27870;DHT22;15225;50.730;4.244;2023-02-28T21:01:39;5.20;1.00
27870;DHT22;15225;50.730;4.244;2023-02-28T21:04:07;5.20;1.00
27870;DHT22;15225;50.730;4.244;2023-02-28T21:06:39;5.20;1.00
27870;DHT22;15225;50.730;4.244;2023-02-28T21:09:09;5.20;1.00
27870;DHT22;15225;50.730;4.244;2023-02-28T21:11:37;5.10;1.00
27870;DHT22;15225;50.730;4.244;2023-02-28T21:14:05;5.10;1.00
27870;DHT22;15225;50.730;4.244;2023-02-28T21:16:32;5.20;1.00
27870;DHT22;15225;50.730;4.244;2023-02-28T21:18:58;5.10;1.00
27870;DHT22;15225;50.730;4.244;2023-02-28T21:21:33;5.20;1.00
27870;DHT22;15225;50.730;4.244;2023-02-28T21:23:58;5.10;1.00
27870;DHT22;15225;50.730;4.244;2023-02-28T21:26:24;5.10;1.00
27870;DHT22;15225;50.730;4.244;2023-02-28T21:28:52;4.90;1.00
27870;DHT22;15225;50.730;4.244;2023-02-28T21:31:20;4.90;1.00
27870;DHT22;15225;50.730;4.244;2023-02-28T21:33:46;4.90;1.00
27870;DHT22;15225;50.730;4.244;2023-02-28T21:36:18;5.00;1.00
27870;DHT22;15225;50.730;4.244;2023-02-28T21:38:45;5.00;1.00
27870;DHT22;15225;50.730;4.244;2023-02-28T21:41:18;5.00;1.00
27870;DHT22;15225;50.730;4.244;2023-02-28T21:43:45;5.10;1.00
27870;DHT22;15225;50.730;4.244;2023-02-28T21:46:16;5.00;1.00
27870;DHT22;15225;50.730;4.244;2023-02-28T21:48:43;4.90;1.00
27870;DHT22;15225;50.730;4.244;2023-02-28T21:51:18;5.00;1.00
27870;DHT22;15225;50.730;4.244;2023-02-28T21:53:44;4.90;1.00
27870;DHT22;15225;50.730;4.244;2023-02-28T21:56:21;5.00;1.00
27870;DHT22;15225;50.730;4.244;2023-02-28T21:58:48;5.00;1.00
27870;DHT22;15225;50.730;4.244;2023-02-28T22:03:41;5.00;1.00
27870;DHT22;15225;50.730;4.244;2023-02-28T22:06:13;5.00;1.00
27870;DHT22;15225;50.730;4.244;2023-02-28T22:08:39;5.00;1.00
27870;DHT22;15225;50.730;4.244;2023-02-28T22:11:06;5.00;1.00
27870;DHT22;15225;50.730;4.244;2023-02-28T22:13:32;5.00;1.00
27870;DHT22;15225;50.730;4.244;2023-02-28T22:16:06;5.00;1.00
27870;DHT22;15225;50.730;4.244;2023-02-28T22:18:36;5.00;1.00
27870;DHT22;15225;50.730;4.244;2023-02-28T22:21:03;4.90;1.00
27870;DHT22;15225;50.730;4.244;2023-02-28T22:23:28;4.80;1.00
27870;DHT22;15225;50.730;4.244;2023-02-28T22:25:54;4.80;1.00
27870;DHT22;15225;50.730;4.244;2023-02-28T22:28:21;4.70;1.00
27870;DHT22;15225;50.730;4.244;2023-02-28T22:30:48;4.70;1.00
27870;DHT22;15225;50.730;4.244;2023-02-28T22:33:15;4.70;1.00
27870;DHT22;15225;50.730;4.244;2023-02-28T22:35:41;4.40;1.00
27870;DHT22;15225;50.730;4.244;2023-02-28T22:38:07;4.40;1.00
27870;DHT22;15225;50.730;4.244;2023-02-28T22:40:35;4.40;1.00
27870;DHT22;15225;50.730;4.244;2023-02-28T22:43:01;4.50;1.00
27870;DHT22;15225;50.730;4.244;2023-02-28T22:45:27;4.60;1.00
